createdAt,value
2018-08-11T00:02:18.538Z,46.70
2018-08-11T00:04:45.738Z,46.80
2018-08-11T00:07:12.932Z,47.10
2018-08-11T00:09:40.146Z,47.60
2018-08-11T00:12:07.376Z,48.10
2018-08-11T00:14:34.592Z,48.50
2018-08-11T00:17:01.817Z,48.90
2018-08-11T00:19:29.027Z,49.40
2018-08-11T00:21:56.360Z,49.70
2018-08-11T00:24:23.704Z,50.00
2018-08-11T00:26:50.939Z,50.30
2018-08-11T00:29:18.132Z,50.50
2018-08-11T00:31:45.317Z,50.50
2018-08-11T00:34:12.525Z,50.40
2018-08-11T00:36:39.747Z,50.40
2018-08-11T00:39:08.646Z,49.40
2018-08-11T00:41:35.906Z,50.00
2018-08-11T00:44:03.660Z,49.70
2018-08-11T00:46:30.870Z,49.80
2018-08-11T00:48:58.056Z,49.30
2018-08-11T00:51:25.249Z,49.80
2018-08-11T00:53:52.445Z,50.20
2018-08-11T00:56:19.653Z,50.30
2018-08-11T00:58:46.825Z,50.30
2018-08-11T01:01:15.106Z,50.40
2018-08-11T01:03:42.316Z,49.50
2018-08-11T01:06:09.504Z,49.20
2018-08-11T01:08:36.696Z,49.20
2018-08-11T01:11:03.924Z,49.30
2018-08-11T01:13:31.122Z,49.20
2018-08-11T01:15:58.338Z,49.10
2018-08-11T01:18:25.553Z,49.10
2018-08-11T01:20:52.733Z,48.70
2018-08-11T01:23:19.952Z,48.80
2018-08-11T01:25:47.131Z,48.70
2018-08-11T01:28:14.336Z,48.60
2018-08-11T01:30:41.521Z,48.90
2018-08-11T01:33:08.729Z,48.60
2018-08-11T01:35:35.895Z,48.10
2018-08-11T01:38:03.104Z,48.00
2018-08-11T01:40:30.317Z,47.60
2018-08-11T01:42:57.548Z,47.70
2018-08-11T01:45:24.744Z,47.90
2018-08-11T01:47:52.018Z,48.50
2018-08-11T01:50:19.216Z,47.90
2018-08-11T01:52:46.950Z,48.30
2018-08-11T01:55:15.636Z,47.80
2018-08-11T01:57:42.898Z,47.40
2018-08-11T02:00:11.700Z,47.20
2018-08-11T02:02:39.138Z,47.70
2018-08-11T02:05:07.096Z,47.20
2018-08-11T02:07:34.360Z,47.30
2018-08-11T02:10:01.592Z,47.40
2018-08-11T02:12:29.057Z,47.40
2018-08-11T02:14:56.231Z,47.40
2018-08-11T02:17:23.441Z,47.60
2018-08-11T02:19:50.711Z,47.70
2018-08-11T02:22:17.897Z,47.90
2018-08-11T02:24:45.090Z,47.90
2018-08-11T02:27:12.285Z,48.00
2018-08-11T02:29:39.468Z,48.10
2018-08-11T02:32:06.701Z,48.10
2018-08-11T02:34:34.029Z,48.50
2018-08-11T02:37:01.226Z,48.90
2018-08-11T02:39:28.429Z,49.50
2018-08-11T02:41:55.608Z,50.70
2018-08-11T02:44:22.821Z,51.30
2018-08-11T02:46:50.006Z,50.00
2018-08-11T02:49:17.211Z,50.00
2018-08-11T02:51:44.390Z,50.00
2018-08-11T02:54:11.564Z,49.60
2018-08-11T02:56:38.761Z,48.90
2018-08-11T02:59:05.953Z,48.90
2018-08-11T03:01:33.138Z,48.80
2018-08-11T03:06:34.437Z,49.10
2018-08-11T03:09:01.614Z,49.10
2018-08-11T03:11:28.795Z,49.40
2018-08-11T03:13:56.004Z,49.70
2018-08-11T03:16:23.148Z,49.50
2018-08-11T03:18:50.833Z,49.30
2018-08-11T03:21:18.018Z,49.50
2018-08-11T03:23:45.196Z,49.50
2018-08-11T03:26:12.388Z,49.80
2018-08-11T03:28:39.576Z,50.70
2018-08-11T03:31:06.776Z,50.80
2018-08-11T03:33:34.140Z,50.80
2018-08-11T03:36:01.476Z,50.60
2018-08-11T03:38:28.668Z,50.80
2018-08-11T03:40:55.896Z,50.80
2018-08-11T03:43:23.076Z,50.60
2018-08-11T03:45:50.223Z,50.70
2018-08-11T03:48:17.431Z,50.90
2018-08-11T03:50:44.596Z,51.30
2018-08-11T03:53:11.853Z,51.50
2018-08-11T03:55:39.034Z,51.10
2018-08-11T03:58:06.260Z,51.20
2018-08-11T04:00:33.437Z,50.60
2018-08-11T04:03:00.609Z,50.40
2018-08-11T04:05:27.847Z,50.50
2018-08-11T04:07:55.049Z,50.60
2018-08-11T04:10:22.250Z,50.40
2018-08-11T04:12:49.436Z,50.30
2018-08-11T04:15:16.733Z,50.60
2018-08-11T04:17:43.909Z,50.40
2018-08-11T04:20:12.021Z,51.00
2018-08-11T04:22:39.288Z,51.10
2018-08-11T04:25:07.146Z,51.60
2018-08-11T04:27:34.650Z,51.80
2018-08-11T04:30:02.577Z,52.20
2018-08-11T04:32:29.739Z,51.80
2018-08-11T04:34:56.934Z,52.40
2018-08-11T04:37:24.144Z,52.30
2018-08-11T04:39:51.317Z,52.70
2018-08-11T04:42:18.486Z,53.10
2018-08-11T04:44:45.656Z,52.90
2018-08-11T04:47:12.814Z,53.60
2018-08-11T04:49:40.101Z,53.70
2018-08-11T04:52:07.297Z,54.20
2018-08-11T04:54:34.496Z,54.80
2018-08-11T04:57:01.688Z,54.70
2018-08-11T04:59:28.889Z,55.00
2018-08-11T05:01:56.237Z,54.90
2018-08-11T05:04:23.421Z,55.30
2018-08-11T05:06:50.615Z,55.20
2018-08-11T05:09:17.803Z,54.90
2018-08-11T05:11:44.972Z,54.70
2018-08-11T05:14:12.162Z,54.70
2018-08-11T05:16:39.312Z,54.30
2018-08-11T05:19:06.600Z,54.50
2018-08-11T05:21:33.729Z,54.40
2018-08-11T05:24:00.917Z,54.00
2018-08-11T05:26:28.089Z,53.70
2018-08-11T05:28:55.269Z,53.90
2018-08-11T05:31:22.520Z,53.60
2018-08-11T05:33:49.714Z,53.60
2018-08-11T05:36:16.908Z,53.80
2018-08-11T05:38:44.092Z,54.50
2018-08-11T05:41:11.288Z,54.20
2018-08-11T05:43:38.469Z,53.90
2018-08-11T05:46:05.645Z,54.00
2018-08-11T05:48:32.828Z,53.60
2018-08-11T05:50:59.984Z,53.40
2018-08-11T05:53:27.287Z,53.40
2018-08-11T05:55:54.547Z,54.00
2018-08-11T05:58:21.760Z,53.90
2018-08-11T06:00:55.887Z,53.50
2018-08-11T06:03:24.631Z,51.80
2018-08-11T06:05:51.889Z,51.80
2018-08-11T06:08:19.149Z,51.70
2018-08-11T06:10:46.420Z,52.10
2018-08-11T06:13:13.604Z,51.70
2018-08-11T06:15:40.785Z,51.70
2018-08-11T06:18:07.967Z,52.30
2018-08-11T06:20:35.146Z,52.50
2018-08-11T06:23:02.349Z,52.00
2018-08-11T06:25:29.765Z,52.10
2018-08-11T06:27:56.965Z,51.70
2018-08-11T06:30:24.232Z,51.90
2018-08-11T06:32:51.410Z,52.80
2018-08-11T06:35:18.581Z,51.90
2018-08-11T06:37:45.763Z,51.10
2018-08-11T06:40:12.957Z,51.20
2018-08-11T06:42:40.140Z,51.50
2018-08-11T06:45:07.448Z,51.50
2018-08-11T06:47:34.617Z,51.70
2018-08-11T06:50:01.857Z,51.20
2018-08-11T06:52:29.107Z,51.90
2018-08-11T06:54:56.279Z,53.00
2018-08-11T06:57:23.445Z,55.60
2018-08-11T06:59:50.655Z,56.70
2018-08-11T07:02:17.821Z,57.00
2018-08-11T07:04:45.033Z,57.60
2018-08-11T07:07:12.209Z,57.50
2018-08-11T07:09:39.420Z,57.30
2018-08-11T07:12:06.961Z,57.90
2018-08-11T07:14:34.138Z,58.50
2018-08-11T07:17:01.328Z,56.50
2018-08-11T07:19:28.526Z,56.70
2018-08-11T07:21:55.720Z,56.10
2018-08-11T07:24:22.888Z,55.90
2018-08-11T07:26:50.130Z,56.30
2018-08-11T07:29:17.309Z,56.00
2018-08-11T07:31:44.489Z,56.30
2018-08-11T07:34:11.676Z,56.20
2018-08-11T07:36:38.878Z,56.30
2018-08-11T07:39:07.064Z,54.50
2018-08-11T07:41:34.389Z,54.60
2018-08-11T07:44:01.565Z,53.80
2018-08-11T07:46:28.765Z,53.70
2018-08-11T07:48:55.932Z,54.30
2018-08-11T07:51:23.122Z,54.00
2018-08-11T07:53:50.297Z,53.60
2018-08-11T07:56:17.465Z,54.00
2018-08-11T07:58:44.687Z,53.50
2018-08-11T08:01:11.885Z,52.70
2018-08-11T08:03:39.065Z,52.80
2018-08-11T08:06:06.257Z,52.90
2018-08-11T08:08:33.426Z,52.30
2018-08-11T08:11:00.636Z,51.30
2018-08-11T08:13:27.801Z,51.30
2018-08-11T08:15:54.973Z,51.10
2018-08-11T08:18:22.137Z,50.90
2018-08-11T08:20:49.320Z,50.60
2018-08-11T08:23:16.499Z,50.80
2018-08-11T08:25:43.693Z,51.30
2018-08-11T08:28:10.880Z,50.80
2018-08-11T08:30:38.084Z,50.40
2018-08-11T08:33:05.269Z,49.30
2018-08-11T08:35:32.460Z,49.70
2018-08-11T08:37:59.648Z,49.10
2018-08-11T08:40:26.835Z,49.50
2018-08-11T08:42:54.005Z,50.70
2018-08-11T08:45:21.241Z,50.50
2018-08-11T08:47:48.398Z,49.10
2018-08-11T08:50:15.592Z,49.20
2018-08-11T08:52:42.795Z,49.80
2018-08-11T08:55:09.984Z,50.40
2018-08-11T08:57:37.149Z,49.10
2018-08-11T09:00:04.652Z,49.30
2018-08-11T09:02:31.832Z,48.50
2018-08-11T09:04:59.038Z,48.00
2018-08-11T09:07:26.185Z,46.60
2018-08-11T09:09:53.404Z,45.90
2018-08-11T09:12:20.594Z,45.10
2018-08-11T09:14:47.792Z,46.80
2018-08-11T09:17:14.994Z,46.70
2018-08-11T09:19:42.206Z,45.70
2018-08-11T09:22:09.377Z,45.30
2018-08-11T09:24:36.537Z,45.20
2018-08-11T09:27:03.757Z,44.60
2018-08-11T09:29:30.924Z,46.50
2018-08-11T09:31:58.109Z,46.20
2018-08-11T09:34:25.273Z,45.70
2018-08-11T09:36:52.464Z,45.00
2018-08-11T09:39:19.643Z,45.50
2018-08-11T09:41:46.833Z,44.60
2018-08-11T09:44:13.988Z,43.70
2018-08-11T09:46:41.163Z,43.60
2018-08-11T09:49:08.532Z,43.90
2018-08-11T09:51:35.715Z,44.50
2018-08-11T09:54:03.216Z,44.30
2018-08-11T09:56:30.389Z,43.70
2018-08-11T09:58:57.569Z,43.20
2018-08-11T10:01:30.381Z,40.70
2018-08-11T10:03:57.605Z,41.10
2018-08-11T10:06:24.773Z,40.30
2018-08-11T10:08:51.978Z,39.80
2018-08-11T10:11:19.168Z,37.90
2018-08-11T10:13:46.315Z,37.20
2018-08-11T10:16:13.489Z,36.50
2018-08-11T10:18:40.697Z,36.90
2018-08-11T10:21:07.857Z,36.70
2018-08-11T10:23:35.233Z,34.90
2018-08-11T10:26:02.469Z,35.10
2018-08-11T10:28:29.652Z,34.00
2018-08-11T10:30:56.826Z,33.70
2018-08-11T10:33:23.985Z,33.90
2018-08-11T10:35:51.174Z,35.30
2018-08-11T10:38:18.336Z,34.40
2018-08-11T10:40:52.276Z,34.40
2018-08-11T10:43:19.435Z,35.20
2018-08-11T10:45:46.618Z,35.10
2018-08-11T10:48:13.842Z,35.10
2018-08-11T10:50:41.016Z,35.40
2018-08-11T10:53:08.189Z,34.80
2018-08-11T10:55:35.384Z,36.00
2018-08-11T10:58:02.573Z,36.60
2018-08-11T11:00:29.737Z,35.50
2018-08-11T11:02:56.917Z,35.70
2018-08-11T11:05:24.081Z,36.00
2018-08-11T11:07:51.262Z,35.20
2018-08-11T11:10:18.437Z,34.40
2018-08-11T11:12:45.670Z,35.60
2018-08-11T11:15:12.782Z,36.10
2018-08-11T11:17:40.373Z,34.00
2018-08-11T11:20:08.905Z,36.10
2018-08-11T11:22:36.107Z,36.70
2018-08-11T11:25:03.597Z,35.10
2018-08-11T11:27:30.773Z,36.40
2018-08-11T11:29:57.944Z,36.70
2018-08-11T11:32:25.121Z,37.10
2018-08-11T11:34:52.504Z,38.10
2018-08-11T11:37:19.755Z,37.30
2018-08-11T11:39:46.866Z,37.20
2018-08-11T11:42:14.048Z,37.60
2018-08-11T11:44:41.220Z,35.90
2018-08-11T11:47:08.421Z,36.80
2018-08-11T11:49:35.580Z,36.60
2018-08-11T11:52:02.792Z,37.50
2018-08-11T11:54:29.968Z,37.10
2018-08-11T11:56:57.136Z,38.30
2018-08-11T11:59:24.317Z,35.40
2018-08-11T12:01:51.471Z,35.10
2018-08-11T12:04:18.645Z,35.80
2018-08-11T12:06:45.812Z,34.40
2018-08-11T12:09:13.009Z,34.40
2018-08-11T12:11:40.180Z,35.00
2018-08-11T12:14:07.531Z,34.10
2018-08-11T12:16:34.885Z,32.00
2018-08-11T12:19:02.196Z,31.70
2018-08-11T12:21:29.392Z,31.60
2018-08-11T12:23:56.637Z,29.30
2018-08-11T12:26:23.804Z,28.90
2018-08-11T12:28:50.993Z,27.70
2018-08-11T12:31:18.276Z,27.30
2018-08-11T12:33:45.425Z,27.80
2018-08-11T12:36:12.620Z,26.90
2018-08-11T12:38:39.798Z,27.00
2018-08-11T12:41:06.980Z,29.00
2018-08-11T12:43:34.153Z,29.80
2018-08-11T12:46:01.772Z,30.70
2018-08-11T12:48:28.876Z,31.00
2018-08-11T12:50:56.066Z,31.50
2018-08-11T12:53:23.315Z,31.10
2018-08-11T12:55:50.476Z,30.00
2018-08-11T12:58:17.760Z,29.70
2018-08-11T13:00:44.953Z,29.80
2018-08-11T13:03:12.121Z,29.50
2018-08-11T13:05:39.304Z,29.20
2018-08-11T13:08:06.481Z,29.20
2018-08-11T13:10:33.720Z,28.40
2018-08-11T13:13:00.906Z,28.50
2018-08-11T13:15:28.121Z,27.10
2018-08-11T13:17:55.292Z,27.50
2018-08-11T13:20:22.476Z,27.30
2018-08-11T13:22:49.632Z,28.00
2018-08-11T13:25:16.805Z,28.10
2018-08-11T13:27:43.973Z,28.00
2018-08-11T13:30:11.197Z,29.40
2018-08-11T13:32:38.360Z,27.80
2018-08-11T13:35:05.580Z,28.00
2018-08-11T13:37:32.745Z,29.90
2018-08-11T13:39:59.934Z,30.00
2018-08-11T13:42:27.113Z,27.10
2018-08-11T13:44:54.304Z,26.60
2018-08-11T13:47:21.482Z,27.30
2018-08-11T13:49:48.717Z,26.60
2018-08-11T13:52:15.843Z,28.40
2018-08-11T13:54:43.048Z,26.60
2018-08-11T13:57:10.235Z,27.00
2018-08-11T13:59:37.458Z,27.80
2018-08-11T14:02:04.664Z,28.90
2018-08-11T14:04:32.052Z,28.30
2018-08-11T14:07:06.061Z,28.90
2018-08-11T14:09:33.229Z,30.20
2018-08-11T14:12:00.440Z,28.70
2018-08-11T14:14:27.596Z,28.60
2018-08-11T14:16:54.762Z,27.60
2018-08-11T14:19:21.961Z,28.50
2018-08-11T14:21:49.133Z,28.20
2018-08-11T14:24:16.317Z,28.60
2018-08-11T14:26:43.484Z,30.50
2018-08-11T14:29:10.725Z,30.00
2018-08-11T14:31:37.924Z,31.10
2018-08-11T14:34:05.206Z,32.10
2018-08-11T14:36:32.420Z,30.00
2018-08-11T14:38:59.606Z,30.50
2018-08-11T14:41:26.785Z,28.90
2018-08-11T14:43:54.100Z,29.40
2018-08-11T14:46:21.297Z,29.40
2018-08-11T14:48:48.464Z,28.40
2018-08-11T14:51:15.645Z,29.40
2018-08-11T14:53:42.801Z,29.30
2018-08-11T14:56:10.028Z,28.50
2018-08-11T14:58:37.172Z,28.50
2018-08-11T15:01:04.372Z,27.60
2018-08-11T15:03:31.602Z,28.60
2018-08-11T15:05:58.805Z,29.40
2018-08-11T15:08:25.955Z,28.30
2018-08-11T15:10:53.184Z,27.80
2018-08-11T15:13:20.360Z,28.90
2018-08-11T15:15:47.560Z,28.10
2018-08-11T15:18:14.737Z,29.30
2018-08-11T15:20:41.922Z,28.90
2018-08-11T15:23:09.175Z,28.30
2018-08-11T15:25:36.353Z,27.70
2018-08-11T15:28:03.533Z,28.00
2018-08-11T15:30:30.721Z,27.60
2018-08-11T15:32:57.891Z,27.90
2018-08-11T15:35:25.060Z,28.30
2018-08-11T15:37:52.224Z,28.20
2018-08-11T15:40:19.397Z,27.90
2018-08-11T15:42:46.569Z,28.00
2018-08-11T15:45:13.736Z,28.80
2018-08-11T15:47:40.906Z,29.10
2018-08-11T15:50:08.105Z,27.90
2018-08-11T15:52:35.452Z,28.10
2018-08-11T15:55:02.659Z,28.70
2018-08-11T15:57:29.877Z,28.10
2018-08-11T15:59:57.060Z,28.60
2018-08-11T16:02:24.218Z,28.20
2018-08-11T16:04:51.458Z,28.50
2018-08-11T16:07:25.569Z,28.60
2018-08-11T16:09:52.781Z,28.90
2018-08-11T16:12:19.978Z,29.30
2018-08-11T16:14:47.177Z,29.60
2018-08-11T16:17:14.464Z,29.20
2018-08-11T16:19:41.688Z,29.50
2018-08-11T16:22:09.001Z,30.00
2018-08-11T16:24:36.175Z,29.20
2018-08-11T16:27:03.512Z,30.80
2018-08-11T16:29:30.768Z,30.90
2018-08-11T16:31:57.908Z,30.00
2018-08-11T16:34:25.155Z,29.30
2018-08-11T16:36:52.345Z,29.20
2018-08-11T16:39:19.550Z,29.60
2018-08-11T16:41:46.785Z,28.60
2018-08-11T16:44:14.162Z,28.90
2018-08-11T16:46:41.500Z,29.90
2018-08-11T16:49:08.720Z,30.00
2018-08-11T16:51:35.998Z,29.40
2018-08-11T16:54:03.266Z,29.70
2018-08-11T16:56:30.490Z,29.40
2018-08-11T16:58:57.731Z,29.40
2018-08-11T17:01:24.908Z,29.90
2018-08-11T17:03:52.057Z,29.50
2018-08-11T17:06:19.312Z,30.00
2018-08-11T17:08:46.541Z,30.60
2018-08-11T17:11:13.721Z,30.80
2018-08-11T17:13:40.891Z,29.90
2018-08-11T17:16:08.065Z,30.40
2018-08-11T17:18:35.345Z,30.80
2018-08-11T17:21:02.648Z,30.60
2018-08-11T17:23:29.875Z,30.50
2018-08-11T17:25:57.180Z,30.70
2018-08-11T17:28:24.485Z,31.20
2018-08-11T17:30:51.712Z,31.10
2018-08-11T17:33:18.995Z,32.40
2018-08-11T17:35:46.252Z,32.10
2018-08-11T17:38:13.661Z,31.70
2018-08-11T17:40:40.825Z,32.40
2018-08-11T17:43:08.012Z,32.40
2018-08-11T17:45:35.277Z,33.20
2018-08-11T17:48:02.528Z,32.50
2018-08-11T17:50:29.717Z,32.10
2018-08-11T17:52:56.921Z,32.60
2018-08-11T17:55:24.163Z,33.30
2018-08-11T17:57:51.343Z,33.50
2018-08-11T18:00:18.546Z,33.50
2018-08-11T18:02:45.749Z,33.90
2018-08-11T18:05:12.929Z,34.30
2018-08-11T18:07:40.136Z,34.20
2018-08-11T18:10:07.344Z,34.70
2018-08-11T18:12:34.532Z,34.80
2018-08-11T18:15:08.429Z,35.60
2018-08-11T18:17:35.609Z,34.80
2018-08-11T18:20:02.800Z,36.10
2018-08-11T18:22:29.997Z,36.40
2018-08-11T18:24:57.182Z,36.40
2018-08-11T18:27:24.444Z,36.90
2018-08-11T18:29:51.618Z,36.80
2018-08-11T18:32:18.863Z,37.40
2018-08-11T18:34:46.050Z,37.90
2018-08-11T18:37:13.183Z,38.00
2018-08-11T18:39:40.357Z,38.40
2018-08-11T18:42:07.544Z,38.10
2018-08-11T18:44:34.724Z,37.80
2018-08-11T18:47:01.981Z,37.80
2018-08-11T18:49:29.205Z,37.80
2018-08-11T18:51:56.502Z,38.00
2018-08-11T18:54:23.684Z,38.80
2018-08-11T18:56:50.971Z,38.60
2018-08-11T18:59:18.152Z,38.90
2018-08-11T19:01:45.368Z,38.50
2018-08-11T19:04:12.662Z,38.80
2018-08-11T19:06:39.980Z,39.20
2018-08-11T19:09:09.076Z,39.40
2018-08-11T19:11:36.376Z,39.80
2018-08-11T19:14:03.672Z,40.00
2018-08-11T19:16:30.842Z,39.90
2018-08-11T19:18:58.117Z,40.20
2018-08-11T19:21:25.400Z,40.20
2018-08-11T19:23:52.572Z,40.40
2018-08-11T19:26:19.773Z,40.40
2018-08-11T19:28:46.954Z,40.70
2018-08-11T19:31:14.172Z,41.00
2018-08-11T19:33:41.351Z,41.10
2018-08-11T19:36:08.560Z,41.70
2018-08-11T19:38:35.732Z,41.60
2018-08-11T19:41:02.948Z,41.80
2018-08-11T19:43:30.133Z,41.90
2018-08-11T19:45:57.306Z,41.60
2018-08-11T19:48:24.519Z,41.60
2018-08-11T19:50:51.733Z,42.00
2018-08-11T19:53:18.957Z,42.20
2018-08-11T19:55:46.125Z,42.20
2018-08-11T19:58:13.322Z,42.50
2018-08-11T20:00:40.509Z,42.70
2018-08-11T20:03:07.685Z,43.00
2018-08-11T20:05:34.985Z,43.30
2018-08-11T20:08:02.180Z,42.90
2018-08-11T20:10:29.530Z,42.50
2018-08-11T20:12:56.719Z,42.40
2018-08-11T20:15:23.913Z,41.40
2018-08-11T20:17:51.106Z,41.30
2018-08-11T20:20:18.412Z,39.60
2018-08-11T20:22:45.590Z,39.50
2018-08-11T20:25:12.831Z,39.30
2018-08-11T20:27:40.021Z,39.00
2018-08-11T20:30:08.713Z,38.60
2018-08-11T20:32:35.997Z,38.10
2018-08-11T20:35:03.370Z,38.80
2018-08-11T20:37:30.531Z,38.20
2018-08-11T20:39:57.716Z,38.20
2018-08-11T20:42:24.926Z,38.90
2018-08-11T20:44:52.173Z,38.90
2018-08-11T20:47:19.381Z,38.90
2018-08-11T20:49:46.560Z,38.20
2018-08-11T20:52:13.767Z,39.50
2018-08-11T20:54:41.101Z,38.20
2018-08-11T20:57:08.349Z,38.70
2018-08-11T20:59:35.553Z,38.60
2018-08-11T21:02:02.774Z,37.90
2018-08-11T21:04:29.978Z,38.00
2018-08-11T21:06:57.149Z,37.90
2018-08-11T21:09:31.033Z,37.70
2018-08-11T21:11:58.317Z,37.90
2018-08-11T21:14:25.527Z,37.40
2018-08-11T21:16:52.739Z,37.40
2018-08-11T21:19:20.042Z,37.30
2018-08-11T21:21:54.069Z,37.10
2018-08-11T21:24:21.293Z,37.00
2018-08-11T21:26:48.481Z,36.80
2018-08-11T21:29:15.681Z,37.20
2018-08-11T21:31:42.888Z,37.20
2018-08-11T21:34:10.123Z,38.30
2018-08-11T21:36:37.374Z,37.90
2018-08-11T21:39:08.235Z,37.50
2018-08-11T21:41:35.423Z,37.50
2018-08-11T21:44:02.632Z,37.50
2018-08-11T21:46:29.852Z,37.70
2018-08-11T21:48:57.001Z,37.80
2018-08-11T21:51:24.175Z,37.50
2018-08-11T21:53:51.398Z,37.80
2018-08-11T21:56:18.610Z,37.70
2018-08-11T21:58:45.908Z,37.40
2018-08-11T22:01:14.773Z,37.30
2018-08-11T22:03:42.867Z,37.70
2018-08-11T22:06:10.075Z,37.60
2018-08-11T22:08:37.397Z,37.90
2018-08-11T22:11:04.631Z,37.90
2018-08-11T22:13:31.838Z,37.60
2018-08-11T22:15:59.072Z,38.30
2018-08-11T22:18:26.252Z,38.40
2018-08-11T22:20:53.613Z,38.40
2018-08-11T22:23:20.825Z,38.60
2018-08-11T22:25:48.012Z,39.00
2018-08-11T22:28:15.193Z,38.70
2018-08-11T22:30:42.473Z,38.60
2018-08-11T22:33:09.669Z,38.50
2018-08-11T22:35:37.045Z,39.10
2018-08-11T22:38:04.373Z,38.70
2018-08-11T22:40:31.566Z,39.10
2018-08-11T22:42:58.765Z,40.80
2018-08-11T22:45:25.969Z,41.00
2018-08-11T22:47:53.159Z,41.40
2018-08-11T22:50:20.477Z,42.80
2018-08-11T22:52:47.685Z,43.80
2018-08-11T22:55:14.841Z,44.80
2018-08-11T22:57:42.044Z,45.00
2018-08-11T23:00:15.629Z,46.20
2018-08-11T23:02:43.131Z,46.10
2018-08-11T23:05:10.356Z,47.20
2018-08-11T23:07:37.749Z,47.80
2018-08-11T23:10:07.152Z,48.20
2018-08-11T23:12:34.337Z,49.20
2018-08-11T23:15:01.544Z,48.90
2018-08-11T23:17:28.745Z,49.50
2018-08-11T23:19:55.929Z,50.20
2018-08-11T23:22:23.147Z,50.20
2018-08-11T23:24:50.345Z,50.80
2018-08-11T23:27:17.559Z,50.30
2018-08-11T23:29:44.755Z,50.50
2018-08-11T23:32:11.936Z,50.90
2018-08-11T23:34:39.106Z,51.50
2018-08-11T23:37:06.350Z,51.90
2018-08-11T23:39:33.516Z,51.80
2018-08-11T23:42:00.679Z,51.90
2018-08-11T23:44:27.838Z,51.70
2018-08-11T23:46:55.048Z,51.70
2018-08-11T23:49:22.215Z,51.70
2018-08-11T23:51:49.392Z,52.10
2018-08-11T23:54:16.559Z,52.40
2018-08-11T23:56:43.720Z,52.50
2018-08-11T23:59:10.894Z,52.60
